sensor_id;sensor_type;location;lat;lon;timestamp;temperature;humidity
9389;DHT22;4734;52.778;6.798;2022-11-09T00:00:49;12.80;99.90
9389;DHT22;4734;52.778;6.798;2022-11-09T00:03:35;12.80;99.90
9389;DHT22;4734;52.778;6.798;2022-11-09T00:06:21;12.80;99.90
9389;DHT22;4734;52.778;6.798;2022-11-09T00:09:06;12.80;99.90
9389;DHT22;4734;52.778;6.798;2022-11-09T00:11:53;12.80;99.90
9389;DHT22;4734;52.778;6.798;2022-11-09T00:14:39;12.80;99.90
9389;DHT22;4734;52.778;6.798;2022-11-09T00:17:26;12.80;99.90
9389;DHT22;4734;52.778;6.798;2022-11-09T00:20:12;12.80;99.90
9389;DHT22;4734;52.778;6.798;2022-11-09T00:22:57;12.80;99.90
9389;DHT22;4734;52.778;6.798;2022-11-09T00:25:42;12.80;99.90
9389;DHT22;4734;52.778;6.798;2022-11-09T00:28:30;12.80;99.90
9389;DHT22;4734;52.778;6.798;2022-11-09T00:31:23;12.80;99.90
9389;DHT22;4734;52.778;6.798;2022-11-09T00:34:12;12.80;99.90
9389;DHT22;4734;52.778;6.798;2022-11-09T00:36:57;12.80;99.90
9389;DHT22;4734;52.778;6.798;2022-11-09T00:39:42;12.80;99.90
9389;DHT22;4734;52.778;6.798;2022-11-09T00:42:28;12.80;99.90
9389;DHT22;4734;52.778;6.798;2022-11-09T00:45:14;12.80;99.90
9389;DHT22;4734;52.778;6.798;2022-11-09T00:47:59;12.80;99.90
9389;DHT22;4734;52.778;6.798;2022-11-09T00:50:49;12.80;99.90
9389;DHT22;4734;52.778;6.798;2022-11-09T00:53:35;12.80;99.90
9389;DHT22;4734;52.778;6.798;2022-11-09T00:56:20;12.80;99.90
9389;DHT22;4734;52.778;6.798;2022-11-09T00:59:09;12.80;99.90
9389;DHT22;4734;52.778;6.798;2022-11-09T01:01:54;12.80;99.90
9389;DHT22;4734;52.778;6.798;2022-11-09T01:04:39;12.80;99.90
9389;DHT22;4734;52.778;6.798;2022-11-09T01:07:26;12.80;99.90
9389;DHT22;4734;52.778;6.798;2022-11-09T01:10:11;12.80;99.90
9389;DHT22;4734;52.778;6.798;2022-11-09T01:12:57;12.80;99.90
9389;DHT22;4734;52.778;6.798;2022-11-09T01:15:44;12.80;99.90
9389;DHT22;4734;52.778;6.798;2022-11-09T01:18:30;12.80;99.90
9389;DHT22;4734;52.778;6.798;2022-11-09T01:21:15;12.80;99.90
9389;DHT22;4734;52.778;6.798;2022-11-09T01:24:03;12.80;99.90
9389;DHT22;4734;52.778;6.798;2022-11-09T01:26:48;12.80;99.90
9389;DHT22;4734;52.778;6.798;2022-11-09T01:29:34;12.90;99.90
9389;DHT22;4734;52.778;6.798;2022-11-09T01:32:19;12.80;99.90
9389;DHT22;4734;52.778;6.798;2022-11-09T01:35:06;12.80;99.90
9389;DHT22;4734;52.778;6.798;2022-11-09T01:37:51;12.80;99.90
9389;DHT22;4734;52.778;6.798;2022-11-09T01:40:39;12.90;99.90
9389;DHT22;4734;52.778;6.798;2022-11-09T01:43:24;12.90;99.90
9389;DHT22;4734;52.778;6.798;2022-11-09T01:46:15;12.90;99.90
9389;DHT22;4734;52.778;6.798;2022-11-09T01:49:04;12.90;99.90
9389;DHT22;4734;52.778;6.798;2022-11-09T01:51:53;12.90;99.90
9389;DHT22;4734;52.778;6.798;2022-11-09T01:54:41;12.90;99.90
9389;DHT22;4734;52.778;6.798;2022-11-09T01:57:33;12.90;99.90
9389;DHT22;4734;52.778;6.798;2022-11-09T02:00:21;12.90;99.90
9389;DHT22;4734;52.778;6.798;2022-11-09T02:03:09;12.90;99.90
9389;DHT22;4734;52.778;6.798;2022-11-09T02:05:58;12.90;99.90
9389;DHT22;4734;52.778;6.798;2022-11-09T02:08:45;12.90;99.90
9389;DHT22;4734;52.778;6.798;2022-11-09T02:11:32;12.80;99.90
9389;DHT22;4734;52.778;6.798;2022-11-09T02:14:21;12.80;99.90
9389;DHT22;4734;52.778;6.798;2022-11-09T02:17:08;12.80;99.90
9389;DHT22;4734;52.778;6.798;2022-11-09T02:19:56;12.80;99.90
9389;DHT22;4734;52.778;6.798;2022-11-09T02:22:44;12.90;99.90
9389;DHT22;4734;52.778;6.798;2022-11-09T02:25:30;12.90;99.90
9389;DHT22;4734;52.778;6.798;2022-11-09T02:28:16;12.80;99.90
9389;DHT22;4734;52.778;6.798;2022-11-09T02:31:04;12.80;99.90
9389;DHT22;4734;52.778;6.798;2022-11-09T02:33:53;12.80;99.90
9389;DHT22;4734;52.778;6.798;2022-11-09T02:36:39;12.80;99.90
9389;DHT22;4734;52.778;6.798;2022-11-09T02:39:27;12.80;99.90
9389;DHT22;4734;52.778;6.798;2022-11-09T02:42:14;12.80;99.90
9389;DHT22;4734;52.778;6.798;2022-11-09T02:45:00;12.80;99.90
9389;DHT22;4734;52.778;6.798;2022-11-09T02:47:46;12.80;99.90
9389;DHT22;4734;52.778;6.798;2022-11-09T02:50:32;12.80;99.90
9389;DHT22;4734;52.778;6.798;2022-11-09T02:53:19;12.80;99.90
9389;DHT22;4734;52.778;6.798;2022-11-09T02:56:06;12.70;99.90
9389;DHT22;4734;52.778;6.798;2022-11-09T02:58:51;12.70;99.90
9389;DHT22;4734;52.778;6.798;2022-11-09T03:01:37;12.70;99.90
9389;DHT22;4734;52.778;6.798;2022-11-09T03:04:22;12.70;99.90
9389;DHT22;4734;52.778;6.798;2022-11-09T03:07:08;12.70;99.90
9389;DHT22;4734;52.778;6.798;2022-11-09T03:09:53;12.70;99.90
9389;DHT22;4734;52.778;6.798;2022-11-09T03:12:40;12.70;99.90
9389;DHT22;4734;52.778;6.798;2022-11-09T03:15:25;12.70;99.90
9389;DHT22;4734;52.778;6.798;2022-11-09T03:18:11;12.70;99.90
9389;DHT22;4734;52.778;6.798;2022-11-09T03:21:00;12.70;99.90
9389;DHT22;4734;52.778;6.798;2022-11-09T03:23:45;12.70;99.90
9389;DHT22;4734;52.778;6.798;2022-11-09T03:26:32;12.70;99.90
9389;DHT22;4734;52.778;6.798;2022-11-09T03:29:18;12.70;99.90
9389;DHT22;4734;52.778;6.798;2022-11-09T03:32:04;12.60;99.90
9389;DHT22;4734;52.778;6.798;2022-11-09T03:34:50;12.60;99.90
9389;DHT22;4734;52.778;6.798;2022-11-09T03:37:35;12.60;99.90
9389;DHT22;4734;52.778;6.798;2022-11-09T03:40:21;12.60;99.90
9389;DHT22;4734;52.778;6.798;2022-11-09T03:43:06;12.60;99.90
9389;DHT22;4734;52.778;6.798;2022-11-09T03:45:54;12.60;99.90
9389;DHT22;4734;52.778;6.798;2022-11-09T03:48:39;12.60;99.90
9389;DHT22;4734;52.778;6.798;2022-11-09T03:51:25;12.60;99.90
9389;DHT22;4734;52.778;6.798;2022-11-09T03:54:10;12.60;99.90
9389;DHT22;4734;52.778;6.798;2022-11-09T03:56:56;12.60;99.90
9389;DHT22;4734;52.778;6.798;2022-11-09T03:59:41;12.50;99.90
9389;DHT22;4734;52.778;6.798;2022-11-09T04:02:28;12.50;99.90
9389;DHT22;4734;52.778;6.798;2022-11-09T04:05:14;12.50;99.90
9389;DHT22;4734;52.778;6.798;2022-11-09T04:08:00;12.60;99.90
9389;DHT22;4734;52.778;6.798;2022-11-09T04:10:45;12.50;99.90
9389;DHT22;4734;52.778;6.798;2022-11-09T04:13:31;12.50;99.90
9389;DHT22;4734;52.778;6.798;2022-11-09T04:16:16;12.50;99.90
9389;DHT22;4734;52.778;6.798;2022-11-09T04:19:03;12.50;99.90
9389;DHT22;4734;52.778;6.798;2022-11-09T04:21:48;12.50;99.90
9389;DHT22;4734;52.778;6.798;2022-11-09T04:24:34;12.50;99.90
9389;DHT22;4734;52.778;6.798;2022-11-09T04:27:19;12.50;99.90
9389;DHT22;4734;52.778;6.798;2022-11-09T04:30:06;12.50;99.90
9389;DHT22;4734;52.778;6.798;2022-11-09T04:32:51;12.50;99.90
9389;DHT22;4734;52.778;6.798;2022-11-09T04:35:39;12.50;99.90
9389;DHT22;4734;52.778;6.798;2022-11-09T04:38:24;12.50;99.90
9389;DHT22;4734;52.778;6.798;2022-11-09T04:41:09;12.50;99.90
9389;DHT22;4734;52.778;6.798;2022-11-09T04:43:55;12.50;99.90
9389;DHT22;4734;52.778;6.798;2022-11-09T04:46:40;12.50;99.90
9389;DHT22;4734;52.778;6.798;2022-11-09T04:49:26;12.50;99.90
9389;DHT22;4734;52.778;6.798;2022-11-09T04:52:13;12.50;99.90
9389;DHT22;4734;52.778;6.798;2022-11-09T04:54:58;12.50;99.90
9389;DHT22;4734;52.778;6.798;2022-11-09T04:57:43;12.50;99.90
9389;DHT22;4734;52.778;6.798;2022-11-09T05:00:29;12.50;99.90
9389;DHT22;4734;52.778;6.798;2022-11-09T05:03:15;12.50;99.90
9389;DHT22;4734;52.778;6.798;2022-11-09T05:06:01;12.50;99.90
9389;DHT22;4734;52.778;6.798;2022-11-09T05:09:08;12.40;99.90
9389;DHT22;4734;52.778;6.798;2022-11-09T05:11:53;12.40;99.90
9389;DHT22;4734;52.778;6.798;2022-11-09T05:14:39;12.40;99.90
9389;DHT22;4734;52.778;6.798;2022-11-09T05:17:25;12.40;99.90
9389;DHT22;4734;52.778;6.798;2022-11-09T05:20:11;12.50;99.90
9389;DHT22;4734;52.778;6.798;2022-11-09T05:22:57;12.40;99.90
9389;DHT22;4734;52.778;6.798;2022-11-09T05:26:01;12.40;99.90
9389;DHT22;4734;52.778;6.798;2022-11-09T05:28:46;12.40;99.90
9389;DHT22;4734;52.778;6.798;2022-11-09T05:31:32;12.40;99.90
9389;DHT22;4734;52.778;6.798;2022-11-09T05:34:17;12.40;99.90
9389;DHT22;4734;52.778;6.798;2022-11-09T05:37:03;12.40;99.90
9389;DHT22;4734;52.778;6.798;2022-11-09T05:39:48;12.40;99.90
9389;DHT22;4734;52.778;6.798;2022-11-09T05:42:37;12.40;99.90
9389;DHT22;4734;52.778;6.798;2022-11-09T05:45:23;12.40;99.90
9389;DHT22;4734;52.778;6.798;2022-11-09T05:48:10;12.40;99.90
9389;DHT22;4734;52.778;6.798;2022-11-09T05:50:59;12.40;99.90
9389;DHT22;4734;52.778;6.798;2022-11-09T05:53:44;12.40;99.90
9389;DHT22;4734;52.778;6.798;2022-11-09T05:56:30;12.40;99.90
9389;DHT22;4734;52.778;6.798;2022-11-09T05:59:17;12.40;99.90
9389;DHT22;4734;52.778;6.798;2022-11-09T06:02:06;12.40;99.90
9389;DHT22;4734;52.778;6.798;2022-11-09T06:04:52;12.40;99.90
9389;DHT22;4734;52.778;6.798;2022-11-09T06:07:37;12.40;99.90
9389;DHT22;4734;52.778;6.798;2022-11-09T06:10:23;12.30;99.90
9389;DHT22;4734;52.778;6.798;2022-11-09T06:13:09;12.40;99.90
9389;DHT22;4734;52.778;6.798;2022-11-09T06:16:00;12.30;99.90
9389;DHT22;4734;52.778;6.798;2022-11-09T06:18:45;12.40;99.90
9389;DHT22;4734;52.778;6.798;2022-11-09T06:21:31;12.30;99.90
9389;DHT22;4734;52.778;6.798;2022-11-09T06:24:16;12.30;99.90
9389;DHT22;4734;52.778;6.798;2022-11-09T06:27:02;12.30;99.90
9389;DHT22;4734;52.778;6.798;2022-11-09T06:29:47;12.30;99.90
9389;DHT22;4734;52.778;6.798;2022-11-09T06:32:34;12.30;99.90
9389;DHT22;4734;52.778;6.798;2022-11-09T06:35:19;12.30;99.90
9389;DHT22;4734;52.778;6.798;2022-11-09T06:38:05;12.20;99.90
9389;DHT22;4734;52.778;6.798;2022-11-09T06:40:50;12.20;99.90
9389;DHT22;4734;52.778;6.798;2022-11-09T06:43:36;12.20;99.90
9389;DHT22;4734;52.778;6.798;2022-11-09T06:46:22;12.20;99.90
9389;DHT22;4734;52.778;6.798;2022-11-09T06:49:09;12.20;99.90
9389;DHT22;4734;52.778;6.798;2022-11-09T06:51:54;12.20;99.90
9389;DHT22;4734;52.778;6.798;2022-11-09T06:54:39;12.20;99.90
9389;DHT22;4734;52.778;6.798;2022-11-09T06:57:28;12.20;99.90
9389;DHT22;4734;52.778;6.798;2022-11-09T07:00:15;12.10;99.90
9389;DHT22;4734;52.778;6.798;2022-11-09T07:03:00;12.10;99.90
9389;DHT22;4734;52.778;6.798;2022-11-09T07:05:49;12.10;99.90
9389;DHT22;4734;52.778;6.798;2022-11-09T07:08:35;12.10;99.90
9389;DHT22;4734;52.778;6.798;2022-11-09T07:11:21;12.10;99.90
9389;DHT22;4734;52.778;6.798;2022-11-09T07:14:06;12.10;99.90
9389;DHT22;4734;52.778;6.798;2022-11-09T07:16:52;12.10;99.90
9389;DHT22;4734;52.778;6.798;2022-11-09T07:19:37;12.10;99.90
9389;DHT22;4734;52.778;6.798;2022-11-09T07:22:26;12.10;99.90
9389;DHT22;4734;52.778;6.798;2022-11-09T07:25:12;12.10;99.90
9389;DHT22;4734;52.778;6.798;2022-11-09T07:28:01;12.10;99.90
9389;DHT22;4734;52.778;6.798;2022-11-09T07:30:47;12.10;99.90
9389;DHT22;4734;52.778;6.798;2022-11-09T07:33:36;12.00;99.90
9389;DHT22;4734;52.778;6.798;2022-11-09T07:36:21;12.00;99.90
9389;DHT22;4734;52.778;6.798;2022-11-09T07:39:08;12.00;99.90
9389;DHT22;4734;52.778;6.798;2022-11-09T07:41:53;12.10;99.90
9389;DHT22;4734;52.778;6.798;2022-11-09T07:44:39;12.00;99.90
9389;DHT22;4734;52.778;6.798;2022-11-09T07:47:25;12.00;99.90
9389;DHT22;4734;52.778;6.798;2022-11-09T07:50:10;12.00;99.90
9389;DHT22;4734;52.778;6.798;2022-11-09T07:52:56;12.00;99.90
9389;DHT22;4734;52.778;6.798;2022-11-09T07:55:43;12.00;99.90
9389;DHT22;4734;52.778;6.798;2022-11-09T07:58:29;12.00;99.90
9389;DHT22;4734;52.778;6.798;2022-11-09T08:01:14;12.00;99.90
9389;DHT22;4734;52.778;6.798;2022-11-09T08:04:00;12.00;99.90
9389;DHT22;4734;52.778;6.798;2022-11-09T08:06:45;12.00;99.90
9389;DHT22;4734;52.778;6.798;2022-11-09T08:09:31;12.00;99.90
9389;DHT22;4734;52.778;6.798;2022-11-09T08:12:18;12.00;99.90
9389;DHT22;4734;52.778;6.798;2022-11-09T08:15:04;12.00;99.90
9389;DHT22;4734;52.778;6.798;2022-11-09T08:17:50;12.00;99.90
9389;DHT22;4734;52.778;6.798;2022-11-09T08:20:36;12.10;99.90
9389;DHT22;4734;52.778;6.798;2022-11-09T08:23:22;12.00;99.90
9389;DHT22;4734;52.778;6.798;2022-11-09T08:26:07;12.10;99.90
9389;DHT22;4734;52.778;6.798;2022-11-09T08:28:55;12.10;99.90
9389;DHT22;4734;52.778;6.798;2022-11-09T08:31:41;12.10;99.90
9389;DHT22;4734;52.778;6.798;2022-11-09T08:34:27;12.10;99.90
9389;DHT22;4734;52.778;6.798;2022-11-09T08:37:12;12.10;99.90
9389;DHT22;4734;52.778;6.798;2022-11-09T08:39:57;12.10;99.90
9389;DHT22;4734;52.778;6.798;2022-11-09T08:42:43;12.10;99.90
9389;DHT22;4734;52.778;6.798;2022-11-09T08:45:31;12.10;99.90
9389;DHT22;4734;52.778;6.798;2022-11-09T08:48:17;12.20;99.90
9389;DHT22;4734;52.778;6.798;2022-11-09T08:51:02;12.20;99.90
9389;DHT22;4734;52.778;6.798;2022-11-09T08:53:48;12.20;99.90
9389;DHT22;4734;52.778;6.798;2022-11-09T08:56:33;12.20;99.90
9389;DHT22;4734;52.778;6.798;2022-11-09T08:59:19;12.20;99.90
9389;DHT22;4734;52.778;6.798;2022-11-09T09:02:06;12.30;99.90
9389;DHT22;4734;52.778;6.798;2022-11-09T09:04:52;12.30;99.90
9389;DHT22;4734;52.778;6.798;2022-11-09T09:07:38;12.30;99.90
9389;DHT22;4734;52.778;6.798;2022-11-09T09:10:23;12.30;99.90
9389;DHT22;4734;52.778;6.798;2022-11-09T09:13:09;12.30;99.90
9389;DHT22;4734;52.778;6.798;2022-11-09T09:15:54;12.30;99.90
9389;DHT22;4734;52.778;6.798;2022-11-09T09:18:41;12.40;99.90
9389;DHT22;4734;52.778;6.798;2022-11-09T09:21:27;12.40;99.90
9389;DHT22;4734;52.778;6.798;2022-11-09T09:24:13;12.40;99.90
9389;DHT22;4734;52.778;6.798;2022-11-09T09:26:58;12.40;99.90
9389;DHT22;4734;52.778;6.798;2022-11-09T09:29:44;12.40;99.90
9389;DHT22;4734;52.778;6.798;2022-11-09T09:32:30;12.50;99.90
9389;DHT22;4734;52.778;6.798;2022-11-09T09:35:17;12.50;99.90
9389;DHT22;4734;52.778;6.798;2022-11-09T09:38:02;12.50;99.90
9389;DHT22;4734;52.778;6.798;2022-11-09T09:40:55;12.60;99.90
9389;DHT22;4734;52.778;6.798;2022-11-09T09:43:43;12.60;99.90
9389;DHT22;4734;52.778;6.798;2022-11-09T09:46:36;12.70;99.90
9389;DHT22;4734;52.778;6.798;2022-11-09T09:49:25;12.70;99.90
9389;DHT22;4734;52.778;6.798;2022-11-09T09:52:19;12.70;99.90
9389;DHT22;4734;52.778;6.798;2022-11-09T09:55:13;12.80;99.90
9389;DHT22;4734;52.778;6.798;2022-11-09T09:58:05;12.80;99.90
9389;DHT22;4734;52.778;6.798;2022-11-09T10:00:53;12.80;99.90
9389;DHT22;4734;52.778;6.798;2022-11-09T10:03:39;12.90;99.90
9389;DHT22;4734;52.778;6.798;2022-11-09T10:06:38;12.90;99.90
9389;DHT22;4734;52.778;6.798;2022-11-09T10:09:39;13.00;99.90
9389;DHT22;4734;52.778;6.798;2022-11-09T10:12:39;13.00;99.90
9389;DHT22;4734;52.778;6.798;2022-11-09T10:15:29;13.00;99.90
9389;DHT22;4734;52.778;6.798;2022-11-09T10:18:30;13.10;99.90
9389;DHT22;4734;52.778;6.798;2022-11-09T10:21:30;13.10;99.90
9389;DHT22;4734;52.778;6.798;2022-11-09T10:24:26;13.20;99.90
9389;DHT22;4734;52.778;6.798;2022-11-09T10:27:25;13.20;99.90
9389;DHT22;4734;52.778;6.798;2022-11-09T10:30:13;13.30;99.90
9389;DHT22;4734;52.778;6.798;2022-11-09T10:33:12;13.30;99.90
9389;DHT22;4734;52.778;6.798;2022-11-09T10:36:02;13.30;99.90
9389;DHT22;4734;52.778;6.798;2022-11-09T10:38:57;13.40;99.90
9389;DHT22;4734;52.778;6.798;2022-11-09T10:41:44;13.40;99.90
9389;DHT22;4734;52.778;6.798;2022-11-09T10:44:31;13.50;99.90
9389;DHT22;4734;52.778;6.798;2022-11-09T10:47:17;13.50;99.90
9389;DHT22;4734;52.778;6.798;2022-11-09T10:50:06;13.50;99.90
9389;DHT22;4734;52.778;6.798;2022-11-09T10:52:52;13.60;99.90
9389;DHT22;4734;52.778;6.798;2022-11-09T10:55:53;13.60;99.90
9389;DHT22;4734;52.778;6.798;2022-11-09T10:58:45;13.60;99.90
9389;DHT22;4734;52.778;6.798;2022-11-09T11:01:36;13.70;99.90
9389;DHT22;4734;52.778;6.798;2022-11-09T11:04:23;13.70;99.90
9389;DHT22;4734;52.778;6.798;2022-11-09T11:07:14;13.70;99.90
9389;DHT22;4734;52.778;6.798;2022-11-09T11:10:09;13.70;99.90
9389;DHT22;4734;52.778;6.798;2022-11-09T11:13:22;13.80;99.90
9389;DHT22;4734;52.778;6.798;2022-11-09T11:16:26;13.80;99.90
9389;DHT22;4734;52.778;6.798;2022-11-09T11:19:31;13.80;99.90
9389;DHT22;4734;52.778;6.798;2022-11-09T11:22:20;13.90;99.90
9389;DHT22;4734;52.778;6.798;2022-11-09T11:25:17;13.90;99.90
9389;DHT22;4734;52.778;6.798;2022-11-09T11:28:13;13.90;99.90
9389;DHT22;4734;52.778;6.798;2022-11-09T11:31:00;13.90;99.90
9389;DHT22;4734;52.778;6.798;2022-11-09T11:33:46;14.00;99.90
9389;DHT22;4734;52.778;6.798;2022-11-09T11:36:40;14.00;99.90
9389;DHT22;4734;52.778;6.798;2022-11-09T11:39:47;14.00;99.90
9389;DHT22;4734;52.778;6.798;2022-11-09T11:43:05;14.00;99.90
9389;DHT22;4734;52.778;6.798;2022-11-09T11:46:03;14.10;99.90
9389;DHT22;4734;52.778;6.798;2022-11-09T11:49:12;14.10;99.90
9389;DHT22;4734;52.778;6.798;2022-11-09T11:52:07;14.10;99.90
9389;DHT22;4734;52.778;6.798;2022-11-09T11:55:15;14.10;99.90
9389;DHT22;4734;52.778;6.798;2022-11-09T11:58:16;14.10;99.90
9389;DHT22;4734;52.778;6.798;2022-11-09T12:01:15;14.10;99.90
9389;DHT22;4734;52.778;6.798;2022-11-09T12:04:15;14.10;99.90
9389;DHT22;4734;52.778;6.798;2022-11-09T12:07:21;14.10;99.90
9389;DHT22;4734;52.778;6.798;2022-11-09T12:10:20;14.10;99.90
9389;DHT22;4734;52.778;6.798;2022-11-09T12:13:15;14.10;99.90
9389;DHT22;4734;52.778;6.798;2022-11-09T12:16:06;14.10;99.90
9389;DHT22;4734;52.778;6.798;2022-11-09T12:19:06;14.10;99.90
9389;DHT22;4734;52.778;6.798;2022-11-09T12:22:00;14.10;99.90
9389;DHT22;4734;52.778;6.798;2022-11-09T12:24:53;14.10;99.90
9389;DHT22;4734;52.778;6.798;2022-11-09T12:27:58;14.10;99.90
9389;DHT22;4734;52.778;6.798;2022-11-09T12:30:55;14.10;99.90
9389;DHT22;4734;52.778;6.798;2022-11-09T12:33:47;14.10;99.90
9389;DHT22;4734;52.778;6.798;2022-11-09T12:36:37;14.10;99.90
9389;DHT22;4734;52.778;6.798;2022-11-09T12:39:28;14.20;99.90
9389;DHT22;4734;52.778;6.798;2022-11-09T12:42:32;14.20;99.90
9389;DHT22;4734;52.778;6.798;2022-11-09T12:45:23;14.20;99.90
9389;DHT22;4734;52.778;6.798;2022-11-09T12:48:17;14.20;99.90
9389;DHT22;4734;52.778;6.798;2022-11-09T12:51:06;14.20;99.90
9389;DHT22;4734;52.778;6.798;2022-11-09T12:53:54;14.20;99.90
9389;DHT22;4734;52.778;6.798;2022-11-09T12:56:47;14.30;99.90
9389;DHT22;4734;52.778;6.798;2022-11-09T12:59:44;14.30;99.90
9389;DHT22;4734;52.778;6.798;2022-11-09T13:02:34;14.30;99.90
9389;DHT22;4734;52.778;6.798;2022-11-09T13:05:29;14.20;99.90
9389;DHT22;4734;52.778;6.798;2022-11-09T13:08:19;14.30;99.90
9389;DHT22;4734;52.778;6.798;2022-11-09T13:11:17;14.30;99.90
9389;DHT22;4734;52.778;6.798;2022-11-09T13:14:25;14.30;99.90
9389;DHT22;4734;52.778;6.798;2022-11-09T13:20:44;14.20;99.90
9389;DHT22;4734;52.778;6.798;2022-11-09T13:23:33;14.30;99.90
9389;DHT22;4734;52.778;6.798;2022-11-09T13:29:26;14.20;99.90
9389;DHT22;4734;52.778;6.798;2022-11-09T13:32:31;14.30;99.90
9389;DHT22;4734;52.778;6.798;2022-11-09T13:38:44;14.20;99.90
9389;DHT22;4734;52.778;6.798;2022-11-09T13:41:41;14.20;99.90
9389;DHT22;4734;52.778;6.798;2022-11-09T13:44:28;14.30;99.90
9389;DHT22;4734;52.778;6.798;2022-11-09T13:47:22;14.30;99.90
9389;DHT22;4734;52.778;6.798;2022-11-09T13:50:16;14.30;99.90
9389;DHT22;4734;52.778;6.798;2022-11-09T13:53:03;14.30;99.90
9389;DHT22;4734;52.778;6.798;2022-11-09T13:56:17;14.30;99.90
9389;DHT22;4734;52.778;6.798;2022-11-09T13:59:10;14.30;99.90
9389;DHT22;4734;52.778;6.798;2022-11-09T14:01:57;14.30;99.90
9389;DHT22;4734;52.778;6.798;2022-11-09T14:04:44;14.30;99.90
9389;DHT22;4734;52.778;6.798;2022-11-09T14:07:31;14.30;99.90
9389;DHT22;4734;52.778;6.798;2022-11-09T14:10:25;14.30;99.90
9389;DHT22;4734;52.778;6.798;2022-11-09T14:13:38;14.30;99.90
9389;DHT22;4734;52.778;6.798;2022-11-09T14:16:34;14.30;99.90
9389;DHT22;4734;52.778;6.798;2022-11-09T14:19:27;14.30;99.90
9389;DHT22;4734;52.778;6.798;2022-11-09T14:22:17;14.30;99.90
9389;DHT22;4734;52.778;6.798;2022-11-09T14:25:30;14.30;99.90
9389;DHT22;4734;52.778;6.798;2022-11-09T14:28:37;14.30;99.90
9389;DHT22;4734;52.778;6.798;2022-11-09T14:31:24;14.30;99.90
9389;DHT22;4734;52.778;6.798;2022-11-09T14:34:14;14.20;99.90
9389;DHT22;4734;52.778;6.798;2022-11-09T14:37:02;14.20;99.90
9389;DHT22;4734;52.778;6.798;2022-11-09T14:39:50;14.20;99.90
9389;DHT22;4734;52.778;6.798;2022-11-09T14:42:37;14.20;99.90
9389;DHT22;4734;52.778;6.798;2022-11-09T14:45:25;14.20;99.90
9389;DHT22;4734;52.778;6.798;2022-11-09T14:48:15;14.20;99.90
9389;DHT22;4734;52.778;6.798;2022-11-09T14:51:03;14.20;99.90
9389;DHT22;4734;52.778;6.798;2022-11-09T14:53:50;14.10;99.90
9389;DHT22;4734;52.778;6.798;2022-11-09T14:56:37;14.10;99.90
9389;DHT22;4734;52.778;6.798;2022-11-09T14:59:28;14.10;99.90
9389;DHT22;4734;52.778;6.798;2022-11-09T15:02:17;14.10;99.90
9389;DHT22;4734;52.778;6.798;2022-11-09T15:05:05;14.10;99.90
9389;DHT22;4734;52.778;6.798;2022-11-09T15:07:50;14.10;99.90
9389;DHT22;4734;52.778;6.798;2022-11-09T15:10:36;14.00;99.90
9389;DHT22;4734;52.778;6.798;2022-11-09T15:13:30;14.00;99.90
9389;DHT22;4734;52.778;6.798;2022-11-09T15:16:21;14.00;99.90
9389;DHT22;4734;52.778;6.798;2022-11-09T15:19:22;14.00;99.90
9389;DHT22;4734;52.778;6.798;2022-11-09T15:22:47;13.90;99.90
9389;DHT22;4734;52.778;6.798;2022-11-09T15:25:35;13.90;99.90
9389;DHT22;4734;52.778;6.798;2022-11-09T15:28:48;13.90;99.90
9389;DHT22;4734;52.778;6.798;2022-11-09T15:31:34;13.90;99.90
9389;DHT22;4734;52.778;6.798;2022-11-09T15:34:24;13.90;99.90
9389;DHT22;4734;52.778;6.798;2022-11-09T15:37:22;13.80;99.90
9389;DHT22;4734;52.778;6.798;2022-11-09T15:40:10;13.80;99.90
9389;DHT22;4734;52.778;6.798;2022-11-09T15:42:56;13.80;99.90
9389;DHT22;4734;52.778;6.798;2022-11-09T15:45:41;13.80;99.90
9389;DHT22;4734;52.778;6.798;2022-11-09T15:48:27;13.80;99.90
9389;DHT22;4734;52.778;6.798;2022-11-09T15:51:15;13.70;99.90
9389;DHT22;4734;52.778;6.798;2022-11-09T15:54:00;13.70;99.90
9389;DHT22;4734;52.778;6.798;2022-11-09T15:56:46;13.70;99.90
9389;DHT22;4734;52.778;6.798;2022-11-09T15:59:32;13.70;99.90
9389;DHT22;4734;52.778;6.798;2022-11-09T16:02:18;13.70;99.90
9389;DHT22;4734;52.778;6.798;2022-11-09T16:05:05;13.60;99.90
9389;DHT22;4734;52.778;6.798;2022-11-09T16:07:53;13.60;99.90
9389;DHT22;4734;52.778;6.798;2022-11-09T16:10:39;13.60;99.90
9389;DHT22;4734;52.778;6.798;2022-11-09T16:13:26;13.60;99.90
9389;DHT22;4734;52.778;6.798;2022-11-09T16:16:13;13.50;99.90
9389;DHT22;4734;52.778;6.798;2022-11-09T16:18:59;13.50;99.90
9389;DHT22;4734;52.778;6.798;2022-11-09T16:21:45;13.40;99.90
9389;DHT22;4734;52.778;6.798;2022-11-09T16:24:32;13.40;99.90
9389;DHT22;4734;52.778;6.798;2022-11-09T16:27:18;13.40;99.90
9389;DHT22;4734;52.778;6.798;2022-11-09T16:30:05;13.30;99.90
9389;DHT22;4734;52.778;6.798;2022-11-09T16:32:51;13.30;99.90
9389;DHT22;4734;52.778;6.798;2022-11-09T16:35:37;13.30;99.90
9389;DHT22;4734;52.778;6.798;2022-11-09T16:38:22;13.30;99.90
9389;DHT22;4734;52.778;6.798;2022-11-09T16:41:10;13.30;99.90
9389;DHT22;4734;52.778;6.798;2022-11-09T16:43:57;13.20;99.90
9389;DHT22;4734;52.778;6.798;2022-11-09T16:46:44;13.20;99.90
9389;DHT22;4734;52.778;6.798;2022-11-09T16:49:30;13.20;99.90
9389;DHT22;4734;52.778;6.798;2022-11-09T16:52:16;13.20;99.90
9389;DHT22;4734;52.778;6.798;2022-11-09T16:55:02;13.20;99.90
9389;DHT22;4734;52.778;6.798;2022-11-09T16:57:49;13.10;99.90
9389;DHT22;4734;52.778;6.798;2022-11-09T17:00:34;13.10;99.90
9389;DHT22;4734;52.778;6.798;2022-11-09T17:03:20;13.10;99.90
9389;DHT22;4734;52.778;6.798;2022-11-09T17:06:06;13.00;99.90
9389;DHT22;4734;52.778;6.798;2022-11-09T17:08:55;13.00;99.90
9389;DHT22;4734;52.778;6.798;2022-11-09T17:11:41;13.00;99.90
9389;DHT22;4734;52.778;6.798;2022-11-09T17:14:28;13.00;99.90
9389;DHT22;4734;52.778;6.798;2022-11-09T17:17:14;12.90;99.90
9389;DHT22;4734;52.778;6.798;2022-11-09T17:19:59;12.90;99.90
9389;DHT22;4734;52.778;6.798;2022-11-09T17:22:48;12.90;99.90
9389;DHT22;4734;52.778;6.798;2022-11-09T17:25:33;12.90;99.90
9389;DHT22;4734;52.778;6.798;2022-11-09T17:28:19;12.80;99.90
9389;DHT22;4734;52.778;6.798;2022-11-09T17:31:10;12.80;99.90
9389;DHT22;4734;52.778;6.798;2022-11-09T17:33:56;12.80;99.90
9389;DHT22;4734;52.778;6.798;2022-11-09T17:36:41;12.80;99.90
9389;DHT22;4734;52.778;6.798;2022-11-09T17:39:27;12.70;99.90
9389;DHT22;4734;52.778;6.798;2022-11-09T17:42:13;12.70;99.90
9389;DHT22;4734;52.778;6.798;2022-11-09T17:44:58;12.70;99.90
9389;DHT22;4734;52.778;6.798;2022-11-09T17:47:45;12.70;99.90
9389;DHT22;4734;52.778;6.798;2022-11-09T17:50:30;12.60;99.90
9389;DHT22;4734;52.778;6.798;2022-11-09T17:53:16;12.60;99.90
9389;DHT22;4734;52.778;6.798;2022-11-09T17:56:03;12.60;99.90
9389;DHT22;4734;52.778;6.798;2022-11-09T17:58:48;12.50;99.90
9389;DHT22;4734;52.778;6.798;2022-11-09T18:01:34;12.50;99.90
9389;DHT22;4734;52.778;6.798;2022-11-09T18:04:22;12.50;99.90
9389;DHT22;4734;52.778;6.798;2022-11-09T18:07:07;12.40;99.90
9389;DHT22;4734;52.778;6.798;2022-11-09T18:09:53;12.40;99.90
9389;DHT22;4734;52.778;6.798;2022-11-09T18:12:39;12.40;99.90
9389;DHT22;4734;52.778;6.798;2022-11-09T18:15:24;12.30;99.90
9389;DHT22;4734;52.778;6.798;2022-11-09T18:18:10;12.30;99.90
9389;DHT22;4734;52.778;6.798;2022-11-09T18:20:57;12.30;99.90
9389;DHT22;4734;52.778;6.798;2022-11-09T18:23:43;12.20;99.90
9389;DHT22;4734;52.778;6.798;2022-11-09T18:26:28;12.20;99.90
9389;DHT22;4734;52.778;6.798;2022-11-09T18:29:16;12.20;99.90
9389;DHT22;4734;52.778;6.798;2022-11-09T18:32:01;12.20;99.90